createdAt,value
2019-01-26T00:00:45.295Z,100066.48
2019-01-26T00:03:16.753Z,100065.27
2019-01-26T00:05:48.216Z,100062.78
2019-01-26T00:08:19.717Z,100064.05
2019-01-26T00:10:51.177Z,100061.54
2019-01-26T00:13:24.207Z,100061.42
2019-01-26T00:15:55.802Z,100054.94
2019-01-26T00:18:27.328Z,100058.77
2019-01-26T00:20:58.793Z,100048.20
2019-01-26T00:23:30.518Z,100053.91
2019-01-26T00:26:01.961Z,100052.64
2019-01-26T00:28:33.482Z,100047.85
2019-01-26T00:31:06.052Z,100051.68
2019-01-26T00:33:37.560Z,100050.59
2019-01-26T00:36:09.036Z,100048.31
2019-01-26T00:38:40.500Z,100050.42
2019-01-26T00:41:12.025Z,100048.42
2019-01-26T00:43:44.533Z,100054.47
2019-01-26T00:46:16.056Z,100044.19
2019-01-26T00:48:47.496Z,100036.06
2019-01-26T00:51:19.078Z,100040.70
2019-01-26T00:53:50.524Z,100031.62
2019-01-26T00:56:22.024Z,100029.02
2019-01-26T00:58:53.498Z,100027.92
2019-01-26T01:01:24.982Z,100020.55
2019-01-26T01:03:56.439Z,100024.37
2019-01-26T01:06:27.974Z,100019.75
2019-01-26T01:09:01.271Z,100027.89
2019-01-26T01:11:37.401Z,100019.66
2019-01-26T01:14:08.918Z,100020.58
2019-01-26T01:16:41.606Z,100021.03
2019-01-26T01:19:13.110Z,100019.70
2019-01-26T01:21:44.718Z,100022.22
2019-01-26T01:24:16.244Z,100021.83
2019-01-26T01:26:47.701Z,100015.91
2019-01-26T01:29:19.206Z,100022.33
2019-01-26T01:31:50.976Z,100015.88
2019-01-26T01:34:22.498Z,100016.94
2019-01-26T01:36:53.975Z,100016.03
2019-01-26T01:39:25.519Z,100008.72
2019-01-26T01:41:57.107Z,100008.69
2019-01-26T01:44:28.552Z,100007.42
2019-01-26T01:47:00.336Z,100009.98
2019-01-26T01:49:31.823Z,100004.41
2019-01-26T01:52:03.390Z,99998.63
2019-01-26T01:54:34.992Z,99996.89
2019-01-26T01:57:06.514Z,99999.42
2019-01-26T01:59:38.202Z,99988.62
2019-01-26T02:02:09.827Z,99992.52
2019-01-26T02:04:41.268Z,99977.58
2019-01-26T02:07:12.754Z,99972.93
2019-01-26T02:09:44.195Z,99968.67
2019-01-26T02:12:15.703Z,99976.69
2019-01-26T02:14:47.188Z,99972.95
2019-01-26T02:17:18.849Z,99973.81
2019-01-26T02:19:50.274Z,99976.62
2019-01-26T02:22:21.887Z,99969.64
2019-01-26T02:24:53.333Z,99972.45
2019-01-26T02:27:24.852Z,99964.64
2019-01-26T02:29:56.596Z,99965.63
2019-01-26T02:32:28.225Z,99959.30
2019-01-26T02:34:59.704Z,99950.05
2019-01-26T02:37:31.184Z,99949.95
2019-01-26T02:40:02.680Z,99953.60
2019-01-26T02:42:34.241Z,99939.23
2019-01-26T02:45:06.100Z,99943.48
2019-01-26T02:47:37.778Z,99940.41
2019-01-26T02:50:12.985Z,99931.55
2019-01-26T02:52:44.659Z,99939.84
2019-01-26T02:55:16.186Z,99936.12
2019-01-26T02:57:47.638Z,99936.25
2019-01-26T03:00:22.284Z,99932.27
2019-01-26T03:02:53.926Z,99935.42
2019-01-26T03:05:25.449Z,99935.38
2019-01-26T03:07:56.906Z,99937.28
2019-01-26T03:10:28.349Z,99935.92
2019-01-26T03:12:59.926Z,99929.88
2019-01-26T03:15:31.376Z,99927.72
2019-01-26T03:18:03.033Z,99924.14
2019-01-26T03:20:34.455Z,99919.91
2019-01-26T03:23:05.956Z,99924.37
2019-01-26T03:25:37.437Z,99917.40
2019-01-26T03:28:08.935Z,99915.14
2019-01-26T03:30:40.392Z,99914.47
2019-01-26T03:33:12.010Z,99908.52
2019-01-26T03:35:43.488Z,99907.22
2019-01-26T03:38:18.043Z,99902.81
2019-01-26T03:40:49.480Z,99902.83
2019-01-26T03:43:20.980Z,99902.27
2019-01-26T03:45:52.449Z,99901.34
2019-01-26T03:48:25.360Z,99892.39
2019-01-26T03:50:56.816Z,99889.16
2019-01-26T03:53:28.295Z,99889.91
2019-01-26T03:55:59.777Z,99883.50
2019-01-26T03:58:31.586Z,99888.25
2019-01-26T04:01:03.038Z,99885.93
2019-01-26T04:03:34.657Z,99883.10
2019-01-26T04:06:06.133Z,99872.07
2019-01-26T04:08:37.576Z,99869.92
2019-01-26T04:11:09.038Z,99871.20
2019-01-26T04:13:40.476Z,99869.19
2019-01-26T04:16:12.062Z,99869.45
2019-01-26T04:18:44.063Z,99870.36
2019-01-26T04:21:15.597Z,99857.55
2019-01-26T04:23:47.043Z,99850.96
2019-01-26T04:26:18.511Z,99850.56
2019-01-26T04:28:52.560Z,99857.02
2019-01-26T04:31:26.740Z,99849.38
2019-01-26T04:33:58.642Z,99851.09
2019-01-26T04:36:30.093Z,99846.38
2019-01-26T04:39:01.575Z,99840.09
2019-01-26T04:41:33.596Z,99838.89
2019-01-26T04:44:05.209Z,99845.45
2019-01-26T04:46:36.752Z,99837.26
2019-01-26T04:49:08.447Z,99839.02
2019-01-26T04:51:39.927Z,99836.09
2019-01-26T04:54:11.481Z,99830.07
2019-01-26T04:56:45.947Z,99828.27
2019-01-26T04:59:17.412Z,99829.22
2019-01-26T05:01:48.862Z,99823.50
2019-01-26T05:04:20.515Z,99823.20
2019-01-26T05:06:52.040Z,99811.83
2019-01-26T05:09:23.517Z,99818.14
2019-01-26T05:11:54.964Z,99809.50
2019-01-26T05:14:27.447Z,99807.27
2019-01-26T05:16:58.929Z,99809.67
2019-01-26T05:19:30.699Z,99801.47
2019-01-26T05:22:02.157Z,99799.95
2019-01-26T05:24:33.665Z,99808.77
2019-01-26T05:27:05.087Z,99805.91
2019-01-26T05:29:36.569Z,99810.77
2019-01-26T05:32:08.019Z,99807.83
2019-01-26T05:34:39.797Z,99802.37
2019-01-26T05:37:14.034Z,99803.53
2019-01-26T05:39:45.588Z,99801.28
2019-01-26T05:42:17.072Z,99804.77
2019-01-26T05:44:48.518Z,99797.27
2019-01-26T05:47:20.022Z,99797.59
2019-01-26T05:49:51.813Z,99795.98
2019-01-26T05:52:23.305Z,99793.16
2019-01-26T05:54:54.790Z,99790.08
2019-01-26T05:57:26.293Z,99783.50
2019-01-26T05:59:57.800Z,99778.95
2019-01-26T06:02:29.357Z,99772.95
2019-01-26T06:05:00.945Z,99772.92
2019-01-26T06:07:32.456Z,99768.08
2019-01-26T06:10:04.301Z,99775.80
2019-01-26T06:12:35.789Z,99765.44
2019-01-26T06:15:07.744Z,99761.43
2019-01-26T06:17:39.246Z,99753.67
2019-01-26T06:20:12.611Z,99753.48
2019-01-26T06:22:44.077Z,99749.11
2019-01-26T06:25:16.821Z,99752.16
2019-01-26T06:27:48.322Z,99751.31
2019-01-26T06:30:22.994Z,99752.57
2019-01-26T06:32:54.458Z,99741.14
2019-01-26T06:35:26.249Z,99747.36
2019-01-26T06:37:57.760Z,99756.31
2019-01-26T06:40:29.243Z,99743.66
2019-01-26T06:43:00.785Z,99738.73
2019-01-26T06:45:34.018Z,99736.82
2019-01-26T06:48:05.611Z,99731.70
2019-01-26T06:50:37.105Z,99736.27
2019-01-26T06:53:11.441Z,99727.96
2019-01-26T06:55:43.026Z,99733.34
2019-01-26T06:58:14.540Z,99733.69
2019-01-26T07:00:46.118Z,99737.11
2019-01-26T07:03:17.726Z,99731.94
2019-01-26T07:06:03.048Z,99728.98
2019-01-26T07:08:34.536Z,99731.80
2019-01-26T07:11:06.028Z,99739.22
2019-01-26T07:13:37.518Z,99729.25
2019-01-26T07:16:09.186Z,99732.46
2019-01-26T07:18:42.767Z,99734.97
2019-01-26T07:21:14.699Z,99728.70
2019-01-26T07:23:46.307Z,99727.27
2019-01-26T07:26:17.846Z,99725.39
2019-01-26T07:28:49.432Z,99722.95
2019-01-26T07:31:20.901Z,99719.84
2019-01-26T07:33:52.532Z,99718.98
2019-01-26T07:36:24.114Z,99715.88
2019-01-26T07:38:56.691Z,99709.27
2019-01-26T07:41:28.154Z,99705.24
2019-01-26T07:43:59.681Z,99697.91
2019-01-26T07:46:31.233Z,99698.91
2019-01-26T07:49:02.805Z,99699.84
2019-01-26T07:51:34.490Z,99691.62
2019-01-26T07:54:08.519Z,99693.73
2019-01-26T07:56:40.221Z,99693.66
2019-01-26T07:59:11.745Z,99676.48
2019-01-26T08:01:43.283Z,99673.03
2019-01-26T08:04:14.845Z,99677.16
2019-01-26T08:06:46.525Z,99673.25
2019-01-26T08:09:18.035Z,99672.72
2019-01-26T08:11:49.561Z,99665.55
2019-01-26T08:14:21.141Z,99660.80
2019-01-26T08:16:52.720Z,99652.52
2019-01-26T08:19:24.247Z,99657.30
2019-01-26T08:21:55.993Z,99652.72
2019-01-26T08:24:27.542Z,99659.28
2019-01-26T08:26:59.063Z,99658.42
2019-01-26T08:29:30.543Z,99657.39
2019-01-26T08:32:02.107Z,99651.72
2019-01-26T08:34:33.879Z,99645.23
2019-01-26T08:37:05.809Z,99643.47
2019-01-26T08:39:37.267Z,99642.01
2019-01-26T08:42:08.775Z,99636.36
2019-01-26T08:44:40.278Z,99634.09
2019-01-26T08:47:11.800Z,99628.65
2019-01-26T08:49:43.301Z,99626.46
2019-01-26T08:52:15.059Z,99623.67
2019-01-26T08:54:46.581Z,99623.62
2019-01-26T08:57:18.231Z,99618.38
2019-01-26T08:59:49.769Z,99623.62
2019-01-26T09:02:40.178Z,99613.23
2019-01-26T09:05:13.414Z,99616.70
2019-01-26T09:07:45.003Z,99618.31
2019-01-26T09:10:16.478Z,99619.41
2019-01-26T09:12:48.040Z,99614.27
2019-01-26T09:15:19.598Z,99616.81
2019-01-26T09:17:51.191Z,99611.98
2019-01-26T09:20:22.664Z,99608.66
2019-01-26T09:22:54.563Z,99605.70
2019-01-26T09:25:26.097Z,99609.21
2019-01-26T09:27:57.729Z,99596.31
2019-01-26T09:30:29.219Z,99593.36
2019-01-26T09:33:00.786Z,99598.86
2019-01-26T09:35:32.386Z,99597.57
2019-01-26T09:38:04.225Z,99590.91
2019-01-26T09:40:35.705Z,99588.05
2019-01-26T09:43:08.531Z,99583.63
2019-01-26T09:45:40.323Z,99585.89
2019-01-26T09:48:12.000Z,99584.63
2019-01-26T09:50:43.526Z,99582.19
2019-01-26T09:53:15.266Z,99577.95
2019-01-26T09:55:47.002Z,99569.70
2019-01-26T09:58:20.002Z,99565.82
2019-01-26T10:00:51.875Z,99558.81
2019-01-26T10:03:23.496Z,99555.80
2019-01-26T10:05:55.040Z,99553.47
2019-01-26T10:08:26.965Z,99545.91
2019-01-26T10:10:58.567Z,99556.88
2019-01-26T10:13:30.116Z,99550.81
2019-01-26T10:16:01.897Z,99545.41
2019-01-26T10:18:33.444Z,99535.89
2019-01-26T10:21:05.102Z,99533.07
2019-01-26T10:23:38.228Z,99525.66
2019-01-26T10:26:09.676Z,99524.91
2019-01-26T10:28:41.255Z,99526.50
2019-01-26T10:31:13.154Z,99512.77
2019-01-26T10:33:44.798Z,99513.40
2019-01-26T10:36:35.200Z,99509.38
2019-01-26T10:39:17.045Z,99509.73
2019-01-26T10:42:07.540Z,99501.19
2019-01-26T10:44:39.153Z,99504.67
2019-01-26T10:47:10.673Z,99496.05
2019-01-26T10:49:42.347Z,99496.28
2019-01-26T10:52:13.928Z,99493.56
2019-01-26T10:54:45.857Z,99495.63
2019-01-26T10:57:17.500Z,99490.05
2019-01-26T10:59:49.396Z,99487.90
2019-01-26T11:02:20.954Z,99484.47
2019-01-26T11:04:53.892Z,99479.15
2019-01-26T11:07:25.429Z,99473.11
2019-01-26T11:09:57.118Z,99466.87
2019-01-26T11:12:28.655Z,99469.83
2019-01-26T11:15:00.233Z,99457.05
2019-01-26T11:17:31.769Z,99459.83
2019-01-26T11:20:04.508Z,99456.77
2019-01-26T11:22:35.979Z,99451.97
2019-01-26T11:25:08.899Z,99448.66
2019-01-26T11:27:40.591Z,99448.36
2019-01-26T11:30:12.404Z,99446.44
2019-01-26T11:32:44.002Z,99448.17
2019-01-26T11:35:15.495Z,99447.24
2019-01-26T11:37:47.015Z,99445.67
2019-01-26T11:40:21.729Z,99445.67
2019-01-26T11:42:54.293Z,99437.65
2019-01-26T11:45:38.792Z,99438.22
2019-01-26T11:48:17.891Z,99431.96
2019-01-26T11:50:53.969Z,99426.52
2019-01-26T11:53:25.706Z,99421.50
2019-01-26T11:56:02.069Z,99426.10
2019-01-26T11:58:33.588Z,99427.40
2019-01-26T12:01:27.124Z,99425.65
2019-01-26T12:04:11.699Z,99424.76
2019-01-26T12:06:53.592Z,99421.76
2019-01-26T12:09:25.141Z,99417.52
2019-01-26T12:11:56.946Z,99407.86
2019-01-26T12:14:28.603Z,99405.89
2019-01-26T12:17:00.116Z,99401.35
2019-01-26T12:19:31.603Z,99396.97
2019-01-26T12:22:03.129Z,99394.77
2019-01-26T12:24:34.692Z,99401.78
2019-01-26T12:27:06.434Z,99394.39
2019-01-26T12:29:37.986Z,99391.40
2019-01-26T12:32:09.485Z,99391.75
2019-01-26T12:34:41.063Z,99385.76
2019-01-26T12:37:12.656Z,99393.67
2019-01-26T12:39:44.248Z,99392.20
2019-01-26T12:42:16.095Z,99391.42
2019-01-26T12:44:49.317Z,99390.34
2019-01-26T12:47:20.845Z,99387.43
2019-01-26T12:49:53.416Z,99395.03
2019-01-26T12:52:24.910Z,99387.55
2019-01-26T12:54:56.451Z,99386.74
2019-01-26T12:57:28.033Z,99389.98
2019-01-26T12:59:59.575Z,99387.64
2019-01-26T13:02:31.336Z,99385.50
2019-01-26T13:05:02.849Z,99391.73
2019-01-26T13:07:34.431Z,99389.98
2019-01-26T13:10:11.492Z,99393.34
2019-01-26T13:12:43.386Z,99392.64
2019-01-26T13:15:15.370Z,99392.50
2019-01-26T13:17:47.367Z,99392.38
2019-01-26T13:20:18.828Z,99390.58
2019-01-26T13:22:50.366Z,99390.67
2019-01-26T13:25:22.374Z,99383.73
2019-01-26T13:27:54.271Z,99375.30
2019-01-26T13:30:25.869Z,99373.92
2019-01-26T13:32:57.771Z,99371.66
2019-01-26T13:35:29.430Z,99372.75
2019-01-26T13:38:01.835Z,99373.64
2019-01-26T13:40:34.469Z,99368.77
2019-01-26T13:43:06.457Z,99371.94
2019-01-26T13:45:38.117Z,99368.17
2019-01-26T13:48:09.707Z,99364.84
2019-01-26T13:50:41.272Z,99370.55
2019-01-26T13:53:12.862Z,99368.42
2019-01-26T13:55:44.381Z,99366.31
2019-01-26T13:58:16.171Z,99364.66
2019-01-26T14:00:47.985Z,99366.73
2019-01-26T14:03:19.599Z,99366.69
2019-01-26T14:05:51.168Z,99378.19
2019-01-26T14:08:22.774Z,99368.47
2019-01-26T14:10:54.288Z,99369.70
2019-01-26T14:13:26.160Z,99367.18
2019-01-26T14:15:57.805Z,99371.95
2019-01-26T14:18:29.399Z,99368.90
2019-01-26T14:21:00.926Z,99369.08
2019-01-26T14:23:32.551Z,99371.02
2019-01-26T14:26:05.657Z,99368.06
2019-01-26T14:28:37.753Z,99364.34
2019-01-26T14:31:10.188Z,99368.87
2019-01-26T14:33:41.726Z,99370.48
2019-01-26T14:36:13.387Z,99368.45
2019-01-26T14:38:44.992Z,99364.76
2019-01-26T14:41:16.554Z,99365.72
2019-01-26T14:43:48.313Z,99361.64
2019-01-26T14:46:19.880Z,99363.47
2019-01-26T14:48:51.475Z,99365.68
2019-01-26T14:51:23.208Z,99365.97
2019-01-26T14:53:54.796Z,99364.05
2019-01-26T14:56:26.362Z,99367.05
2019-01-26T14:58:58.214Z,99366.25
2019-01-26T15:01:29.846Z,99358.29
2019-01-26T15:04:01.526Z,99359.81
2019-01-26T15:06:33.186Z,99357.91
2019-01-26T15:09:06.841Z,99364.09
2019-01-26T15:11:38.439Z,99365.05
2019-01-26T15:14:10.478Z,99367.25
2019-01-26T15:16:42.037Z,99370.06
2019-01-26T15:19:13.630Z,99367.98
2019-01-26T15:21:45.206Z,99370.94
2019-01-26T15:24:16.829Z,99369.27
2019-01-26T15:26:48.475Z,99364.17
2019-01-26T15:29:19.993Z,99367.12
2019-01-26T15:31:51.623Z,99362.84
2019-01-26T15:34:23.361Z,99363.75
2019-01-26T15:36:55.140Z,99361.67
2019-01-26T15:39:27.176Z,99365.20
2019-01-26T15:41:58.797Z,99360.21
2019-01-26T15:44:30.553Z,99353.59
2019-01-26T15:47:02.139Z,99356.88
2019-01-26T15:49:33.813Z,99353.73
2019-01-26T15:52:05.714Z,99357.14
2019-01-26T15:54:38.503Z,99360.63
2019-01-26T15:57:10.044Z,99358.52
2019-01-26T15:59:42.007Z,99362.07
2019-01-26T16:02:13.709Z,99362.83
2019-01-26T16:04:45.707Z,99356.77
2019-01-26T16:07:17.369Z,99356.02
2019-01-26T16:09:48.921Z,99358.78
2019-01-26T16:12:20.641Z,99357.50
2019-01-26T16:14:52.393Z,99355.27
2019-01-26T16:17:23.912Z,99352.39
2019-01-26T16:19:55.493Z,99352.92
2019-01-26T16:22:27.093Z,99341.02
2019-01-26T16:24:58.631Z,99351.27
2019-01-26T16:27:30.551Z,99362.00
2019-01-26T16:30:02.735Z,99358.98
2019-01-26T16:32:35.441Z,99354.17
2019-01-26T16:35:10.205Z,99358.59
2019-01-26T16:37:41.729Z,99357.73
2019-01-26T16:40:17.507Z,99359.96
2019-01-26T16:42:48.998Z,99363.82
2019-01-26T16:45:24.929Z,99358.08
2019-01-26T16:47:56.513Z,99365.94
2019-01-26T16:50:30.020Z,99367.19
2019-01-26T16:53:01.522Z,99376.91
2019-01-26T16:55:33.097Z,99371.69
2019-01-26T16:58:04.900Z,99368.09
2019-01-26T17:00:51.787Z,99370.02
2019-01-26T17:03:23.307Z,99367.95
2019-01-26T17:05:55.011Z,99371.01
2019-01-26T17:08:26.760Z,99376.37
2019-01-26T17:10:58.338Z,99372.55
2019-01-26T17:13:29.917Z,99375.13
2019-01-26T17:16:01.940Z,99380.91
2019-01-26T17:18:33.519Z,99381.02
2019-01-26T17:21:05.144Z,99386.58
2019-01-26T17:23:36.686Z,99390.82
2019-01-26T17:26:08.519Z,99389.05
2019-01-26T17:28:40.123Z,99381.78
2019-01-26T17:31:11.932Z,99382.05
2019-01-26T17:33:43.504Z,99375.63
2019-01-26T17:36:15.248Z,99384.08
2019-01-26T17:38:46.868Z,99383.22
2019-01-26T17:41:18.461Z,99393.64
2019-01-26T17:43:50.179Z,99394.89
2019-01-26T17:46:22.670Z,99393.78
2019-01-26T17:48:54.150Z,99402.78
2019-01-26T17:51:25.679Z,99393.34
2019-01-26T17:53:57.260Z,99394.97
2019-01-26T17:56:28.815Z,99404.77
2019-01-26T17:59:00.774Z,99406.70
2019-01-26T18:01:32.391Z,99402.05
2019-01-26T18:04:04.262Z,99408.02
2019-01-26T18:06:35.750Z,99409.31
2019-01-26T18:09:09.172Z,99418.72
2019-01-26T18:11:41.344Z,99410.83
2019-01-26T18:14:12.970Z,99418.05
2019-01-26T18:16:44.672Z,99412.88
2019-01-26T18:19:17.454Z,99406.97
2019-01-26T18:21:49.013Z,99411.77
2019-01-26T18:24:20.666Z,99411.31
2019-01-26T18:26:52.251Z,99406.48
2019-01-26T18:29:23.934Z,99412.53
2019-01-26T18:31:55.841Z,99410.79
2019-01-26T18:34:27.548Z,99400.05
2019-01-26T18:36:59.205Z,99410.48
2019-01-26T18:39:31.468Z,99412.08
2019-01-26T18:42:03.690Z,99401.22
2019-01-26T18:44:36.223Z,99395.32
2019-01-26T18:47:08.187Z,99400.81
2019-01-26T18:49:39.924Z,99393.47
2019-01-26T18:52:11.678Z,99388.37
2019-01-26T18:54:44.655Z,99389.38
2019-01-26T18:57:16.676Z,99384.20
2019-01-26T18:59:48.263Z,99378.34
2019-01-26T19:02:20.142Z,99375.28
2019-01-26T19:04:59.044Z,99374.59
2019-01-26T19:07:31.843Z,99372.28
2019-01-26T19:10:03.600Z,99370.98
2019-01-26T19:12:35.693Z,99374.87
2019-01-26T19:15:10.540Z,99366.81
2019-01-26T19:17:43.117Z,99370.88
2019-01-26T19:20:15.328Z,99368.86
2019-01-26T19:22:47.182Z,99364.66
2019-01-26T19:25:21.300Z,99365.98
2019-01-26T19:27:53.479Z,99374.14
2019-01-26T19:30:25.598Z,99380.14
2019-01-26T19:32:58.432Z,99376.43
2019-01-26T19:35:30.102Z,99380.11
2019-01-26T19:38:01.894Z,99382.33
2019-01-26T19:40:34.558Z,99376.70
2019-01-26T19:43:06.331Z,99377.51
2019-01-26T19:45:37.931Z,99375.80
2019-01-26T19:48:09.959Z,99382.95
2019-01-26T19:50:41.811Z,99384.66
2019-01-26T19:53:13.707Z,99379.86
2019-01-26T19:55:45.576Z,99377.19
2019-01-26T19:58:17.455Z,99379.77
2019-01-26T20:00:49.291Z,99378.55
2019-01-26T20:03:20.931Z,99386.33
2019-01-26T20:05:52.607Z,99385.42
2019-01-26T20:08:25.518Z,99378.69
2019-01-26T20:10:57.249Z,99377.67
2019-01-26T20:13:28.869Z,99376.05
2019-01-26T20:16:00.433Z,99377.71
2019-01-26T20:18:32.226Z,99376.77
2019-01-26T20:21:03.818Z,99375.87
2019-01-26T20:23:35.416Z,99376.94
2019-01-26T20:26:07.061Z,99375.27
2019-01-26T20:28:38.554Z,99378.56
2019-01-26T20:31:10.045Z,99384.65
2019-01-26T20:33:41.824Z,99385.17
2019-01-26T20:36:13.313Z,99378.53
2019-01-26T20:38:44.849Z,99373.50
2019-01-26T20:41:16.439Z,99370.05
2019-01-26T20:43:47.954Z,99381.39
2019-01-26T20:46:19.575Z,99372.10
2019-01-26T20:48:51.505Z,99374.67
2019-01-26T20:51:24.983Z,99372.59
2019-01-26T20:53:57.764Z,99372.52
2019-01-26T20:56:29.292Z,99369.60
2019-01-26T20:59:00.885Z,99365.75
2019-01-26T21:01:32.501Z,99364.77
2019-01-26T21:04:04.962Z,99375.09
2019-01-26T21:06:36.897Z,99377.63
2019-01-26T21:09:10.496Z,99373.46
2019-01-26T21:11:42.184Z,99374.05
2019-01-26T21:14:13.902Z,99371.11
2019-01-26T21:16:45.600Z,99370.02
2019-01-26T21:19:17.505Z,99373.15
2019-01-26T21:21:49.203Z,99368.87
2019-01-26T21:24:20.722Z,99374.69
2019-01-26T21:26:52.244Z,99368.61
2019-01-26T21:29:23.817Z,99375.87
2019-01-26T21:31:55.441Z,99371.59
2019-01-26T21:34:27.524Z,99372.73
2019-01-26T21:36:59.763Z,99368.12
2019-01-26T21:39:32.241Z,99379.66
2019-01-26T21:42:04.153Z,99375.99
2019-01-26T21:44:36.315Z,99376.55
2019-01-26T21:47:08.773Z,99379.50
2019-01-26T21:49:40.383Z,99381.63
2019-01-26T21:52:13.287Z,99371.27
2019-01-26T21:54:44.929Z,99376.86
2019-01-26T21:57:16.568Z,99378.22
2019-01-26T21:59:48.064Z,99375.99
2019-01-26T22:02:19.700Z,99381.28
2019-01-26T22:04:51.341Z,99383.58
2019-01-26T22:07:22.879Z,99387.64
2019-01-26T22:09:54.887Z,99381.56
2019-01-26T22:12:26.794Z,99387.20
2019-01-26T22:14:58.464Z,99385.15
2019-01-26T22:17:30.142Z,99387.47
2019-01-26T22:20:03.495Z,99381.53
2019-01-26T22:22:36.510Z,99386.71
2019-01-26T22:25:10.982Z,99388.09
2019-01-26T22:27:43.764Z,99386.78
2019-01-26T22:30:27.963Z,99390.45
2019-01-26T22:32:59.591Z,99387.05
2019-01-26T22:35:31.271Z,99388.27
2019-01-26T22:38:02.811Z,99387.30
2019-01-26T22:40:36.939Z,99389.87
2019-01-26T22:43:08.526Z,99387.05
2019-01-26T22:45:40.359Z,99391.00
2019-01-26T22:48:11.880Z,99390.59
2019-01-26T22:50:43.490Z,99391.70
2019-01-26T22:53:14.988Z,99392.67
2019-01-26T22:55:46.541Z,99396.98
2019-01-26T22:58:18.060Z,99393.13
2019-01-26T23:01:08.597Z,99391.45
2019-01-26T23:04:08.050Z,99392.67
2019-01-26T23:07:53.863Z,99400.03
2019-01-26T23:11:10.242Z,99393.96
2019-01-26T23:14:19.635Z,99395.98
2019-01-26T23:18:05.196Z,99400.93
2019-01-26T23:21:19.965Z,99404.72
2019-01-26T23:24:47.222Z,99399.19
2019-01-26T23:27:52.859Z,99396.59
2019-01-26T23:31:16.539Z,99396.66
2019-01-26T23:33:53.718Z,99396.11
2019-01-26T23:36:25.255Z,99399.19
2019-01-26T23:39:02.157Z,99389.89
2019-01-26T23:41:30.114Z,99390.17
2019-01-26T23:44:01.613Z,99385.66
2019-01-26T23:46:33.111Z,99386.25
2019-01-26T23:49:04.671Z,99383.33
2019-01-26T23:51:36.150Z,99381.66
2019-01-26T23:54:08.013Z,99381.83
2019-01-26T23:56:39.486Z,99375.89
2019-01-26T23:59:11.043Z,99371.55
